createdAt,value
2023-05-09T00:01:31.809Z,53.96
2023-05-09T00:03:59.805Z,54.54
2023-05-09T00:06:27.997Z,54.72
2023-05-09T00:08:55.942Z,54.42
2023-05-09T00:11:23.238Z,54.93
2023-05-09T00:13:51.234Z,54.48
2023-05-09T00:16:18.922Z,55.00
2023-05-09T00:18:47.594Z,54.60
2023-05-09T00:21:14.646Z,55.42
2023-05-09T00:23:41.717Z,54.51
2023-05-09T00:26:10.454Z,54.85
2023-05-09T00:28:39.140Z,55.16
2023-05-09T00:31:06.204Z,54.66
2023-05-09T00:33:33.215Z,54.75
2023-05-09T00:36:00.377Z,55.20
2023-05-09T00:38:27.383Z,55.23
2023-05-09T00:40:54.397Z,54.93
2023-05-09T00:43:21.733Z,54.74
2023-05-09T00:45:49.571Z,55.19
2023-05-09T00:48:16.952Z,54.95
2023-05-09T00:50:44.228Z,55.05
2023-05-09T00:53:11.959Z,55.19
2023-05-09T00:55:39.137Z,55.15
2023-05-09T00:58:06.375Z,54.82
2023-05-09T01:00:33.768Z,55.08
2023-05-09T01:03:01.573Z,55.27
2023-05-09T01:05:40.778Z,55.67
2023-05-09T01:08:18.152Z,55.76
2023-05-09T01:11:09.650Z,55.03
2023-05-09T01:13:36.631Z,54.69
2023-05-09T01:16:16.786Z,55.25
2023-05-09T01:19:00.371Z,55.30
2023-05-09T01:21:30.634Z,55.45
2023-05-09T01:24:16.410Z,55.56
2023-05-09T01:27:07.534Z,56.06
2023-05-09T01:29:39.511Z,56.11
2023-05-09T01:32:10.913Z,55.63
2023-05-09T01:34:40.131Z,55.82
2023-05-09T01:37:07.511Z,55.61
2023-05-09T01:39:38.677Z,56.05
2023-05-09T01:42:08.537Z,56.35
2023-05-09T01:44:39.255Z,56.25
2023-05-09T01:47:07.920Z,56.21
2023-05-09T01:49:37.902Z,56.63
2023-05-09T01:52:09.131Z,56.43
2023-05-09T01:54:38.850Z,56.32
2023-05-09T01:57:08.445Z,56.47
2023-05-09T01:59:36.558Z,56.64
2023-05-09T02:02:04.732Z,56.63
2023-05-09T02:04:34.022Z,56.69
2023-05-09T02:07:02.756Z,56.80
2023-05-09T02:09:29.899Z,56.79
2023-05-09T02:11:56.919Z,56.68
2023-05-09T02:14:24.157Z,56.78
2023-05-09T02:16:51.604Z,56.92
2023-05-09T02:19:18.822Z,56.87
2023-05-09T02:21:46.015Z,56.62
2023-05-09T02:24:13.093Z,56.64
2023-05-09T02:26:41.002Z,57.02
2023-05-09T02:29:08.800Z,56.99
2023-05-09T02:31:37.124Z,56.96
2023-05-09T02:34:05.614Z,57.23
2023-05-09T02:36:35.365Z,57.00
2023-05-09T02:39:02.843Z,57.21
2023-05-09T02:41:30.924Z,57.38
2023-05-09T02:43:57.932Z,56.88
2023-05-09T02:46:24.998Z,57.57
2023-05-09T02:48:52.717Z,57.33
2023-05-09T02:51:20.102Z,57.15
2023-05-09T02:53:47.160Z,57.95
2023-05-09T02:56:14.244Z,57.88
2023-05-09T02:58:41.285Z,57.74
2023-05-09T03:01:08.394Z,57.56
2023-05-09T03:03:35.626Z,57.40
2023-05-09T03:06:04.891Z,57.42
2023-05-09T03:08:32.022Z,57.58
2023-05-09T03:10:59.109Z,57.73
2023-05-09T03:13:26.459Z,57.89
2023-05-09T03:15:53.612Z,57.69
2023-05-09T03:18:20.908Z,57.55
2023-05-09T03:20:47.921Z,57.75
2023-05-09T03:23:15.193Z,57.47
2023-05-09T03:25:42.240Z,57.21
2023-05-09T03:28:09.278Z,56.96
2023-05-09T03:30:36.835Z,57.35
2023-05-09T03:33:07.910Z,57.12
2023-05-09T03:35:34.917Z,56.84
2023-05-09T03:38:02.679Z,57.48
2023-05-09T03:40:29.752Z,57.54
2023-05-09T03:43:05.513Z,57.03
2023-05-09T03:45:32.827Z,56.75
2023-05-09T03:48:00.377Z,57.33
2023-05-09T03:50:27.478Z,56.97
2023-05-09T03:52:57.523Z,56.37
2023-05-09T03:55:25.056Z,56.49
2023-05-09T03:57:52.088Z,55.56
2023-05-09T04:00:19.705Z,55.13
2023-05-09T04:02:54.000Z,55.01
2023-05-09T04:05:33.811Z,54.38
2023-05-09T04:08:01.615Z,54.01
2023-05-09T04:10:30.232Z,53.36
2023-05-09T04:12:57.626Z,52.71
2023-05-09T04:15:24.810Z,52.06
2023-05-09T04:17:51.902Z,51.34
2023-05-09T04:20:18.983Z,51.21
2023-05-09T04:22:47.035Z,50.25
2023-05-09T04:25:17.133Z,49.96
2023-05-09T04:27:45.950Z,50.08
2023-05-09T04:30:13.339Z,49.87
2023-05-09T04:32:45.854Z,49.21
2023-05-09T04:35:14.312Z,48.27
2023-05-09T04:37:45.583Z,47.55
2023-05-09T04:40:13.530Z,47.12
2023-05-09T04:42:47.711Z,46.59
2023-05-09T04:45:15.793Z,46.06
2023-05-09T04:47:44.079Z,46.00
2023-05-09T04:50:11.662Z,45.58
2023-05-09T04:52:38.710Z,44.42
2023-05-09T04:55:06.506Z,42.39
2023-05-09T04:57:38.615Z,40.99
2023-05-09T05:00:11.676Z,40.93
2023-05-09T05:02:39.575Z,41.13
2023-05-09T05:05:12.139Z,39.27
2023-05-09T05:07:42.381Z,38.50
2023-05-09T05:10:11.518Z,37.27
2023-05-09T05:12:41.014Z,36.33
2023-05-09T05:15:11.571Z,36.35
2023-05-09T05:17:39.812Z,36.94
2023-05-09T05:20:10.989Z,36.44
2023-05-09T05:22:48.045Z,35.31
2023-05-09T05:25:17.859Z,35.49
2023-05-09T05:27:57.215Z,35.02
2023-05-09T05:30:29.942Z,35.51
2023-05-09T05:32:58.585Z,35.36
2023-05-09T05:35:28.393Z,34.50
2023-05-09T05:37:56.375Z,34.72
2023-05-09T05:40:23.496Z,35.05
2023-05-09T05:42:52.565Z,35.17
2023-05-09T05:45:20.246Z,34.72
2023-05-09T05:47:51.089Z,34.10
2023-05-09T05:50:18.963Z,33.84
2023-05-09T05:52:46.167Z,33.09
2023-05-09T05:55:15.934Z,32.71
2023-05-09T05:57:43.214Z,32.70
2023-05-09T06:00:15.059Z,33.22
2023-05-09T06:02:50.069Z,31.81
2023-05-09T06:05:28.614Z,31.70
2023-05-09T06:07:55.610Z,32.27
2023-05-09T06:10:22.763Z,32.45
2023-05-09T06:12:49.937Z,32.23
2023-05-09T06:15:18.041Z,32.26
2023-05-09T06:17:48.525Z,31.39
2023-05-09T06:20:15.596Z,31.57
2023-05-09T06:22:42.657Z,31.66
2023-05-09T06:25:10.593Z,31.62
2023-05-09T06:27:38.526Z,31.55
2023-05-09T06:30:21.423Z,30.88
2023-05-09T06:32:52.216Z,30.91
2023-05-09T06:35:19.340Z,30.30
2023-05-09T06:37:48.433Z,29.79
2023-05-09T06:40:16.449Z,30.03
2023-05-09T06:42:43.556Z,29.87
2023-05-09T06:45:11.634Z,30.14
2023-05-09T06:47:38.749Z,30.11
2023-05-09T06:50:06.439Z,29.95
2023-05-09T06:52:33.499Z,30.18
2023-05-09T06:55:00.607Z,30.02
2023-05-09T06:57:27.933Z,30.05
2023-05-09T06:59:54.989Z,29.72
2023-05-09T07:02:22.144Z,29.84
2023-05-09T07:04:49.305Z,29.40
2023-05-09T07:07:16.455Z,29.48
2023-05-09T07:09:43.636Z,29.29
2023-05-09T07:12:10.750Z,29.51
2023-05-09T07:14:38.346Z,29.65
2023-05-09T07:17:18.261Z,29.64
2023-05-09T07:19:49.560Z,30.02
2023-05-09T07:22:16.553Z,29.92
2023-05-09T07:24:46.677Z,29.78
2023-05-09T07:27:14.231Z,29.41
2023-05-09T07:29:41.323Z,28.26
2023-05-09T07:32:09.264Z,28.55
2023-05-09T07:34:36.760Z,28.42
2023-05-09T07:37:03.952Z,29.07
2023-05-09T07:39:31.107Z,29.13
2023-05-09T07:41:58.467Z,29.36
2023-05-09T07:44:25.896Z,29.45
2023-05-09T07:46:55.508Z,29.23
2023-05-09T07:49:22.729Z,29.38
2023-05-09T07:51:49.823Z,29.83
2023-05-09T07:54:16.978Z,29.53
2023-05-09T07:56:44.101Z,29.01
2023-05-09T07:59:12.420Z,28.43
2023-05-09T08:01:39.789Z,27.30
2023-05-09T08:04:09.206Z,27.17
2023-05-09T08:06:36.815Z,26.81
2023-05-09T08:09:04.938Z,26.99
2023-05-09T08:11:36.185Z,26.94
2023-05-09T08:14:03.568Z,26.77
2023-05-09T08:16:31.164Z,25.54
2023-05-09T08:18:58.385Z,25.13
2023-05-09T08:21:26.666Z,25.67
2023-05-09T08:23:53.980Z,25.56
2023-05-09T08:26:22.775Z,25.18
2023-05-09T08:28:50.013Z,24.71
2023-05-09T08:31:17.250Z,25.49
2023-05-09T08:33:44.458Z,25.66
2023-05-09T08:36:11.703Z,25.75
2023-05-09T08:38:40.721Z,25.57
2023-05-09T08:41:07.993Z,25.02
2023-05-09T08:43:35.839Z,24.51
2023-05-09T08:46:08.740Z,24.79
2023-05-09T08:48:39.127Z,25.32
2023-05-09T08:51:07.211Z,26.06
2023-05-09T08:53:34.949Z,25.85
2023-05-09T08:56:04.024Z,25.96
2023-05-09T08:58:32.096Z,26.03
2023-05-09T09:01:01.590Z,25.28
2023-05-09T09:03:28.958Z,24.57
2023-05-09T09:05:56.743Z,24.70
2023-05-09T09:08:25.232Z,23.93
2023-05-09T09:10:52.929Z,23.99
2023-05-09T09:13:22.076Z,23.88
2023-05-09T09:15:49.762Z,24.24
2023-05-09T09:18:22.279Z,24.91
2023-05-09T09:21:00.039Z,25.61
2023-05-09T09:23:29.296Z,25.05
2023-05-09T09:26:01.376Z,24.27
2023-05-09T09:28:29.057Z,24.54
2023-05-09T09:30:56.372Z,24.73
2023-05-09T09:33:25.312Z,24.71
2023-05-09T09:35:53.854Z,25.00
2023-05-09T09:38:22.055Z,25.41
2023-05-09T09:40:52.511Z,25.44
2023-05-09T09:43:20.005Z,24.82
2023-05-09T09:45:51.479Z,24.43
2023-05-09T09:48:18.865Z,24.41
2023-05-09T09:50:48.485Z,23.63
2023-05-09T09:53:16.462Z,24.24
2023-05-09T09:55:52.152Z,24.24
2023-05-09T09:58:25.141Z,24.57
2023-05-09T10:01:16.902Z,24.70
2023-05-09T10:03:48.318Z,24.56
2023-05-09T10:06:17.068Z,24.35
2023-05-09T10:08:49.098Z,24.31
2023-05-09T10:11:16.608Z,23.11
2023-05-09T10:13:44.722Z,23.10
2023-05-09T10:16:13.626Z,22.68
2023-05-09T10:18:43.262Z,21.53
2023-05-09T10:21:15.343Z,21.91
2023-05-09T10:23:48.681Z,22.19
2023-05-09T10:26:23.106Z,21.53
2023-05-09T10:28:55.840Z,22.10
2023-05-09T10:31:27.084Z,21.84
2023-05-09T10:33:56.044Z,22.03
2023-05-09T10:36:26.528Z,21.82
2023-05-09T10:38:55.555Z,22.24
2023-05-09T10:41:23.888Z,22.46
2023-05-09T10:43:51.510Z,22.80
2023-05-09T10:46:19.436Z,22.62
2023-05-09T10:48:48.984Z,22.43
2023-05-09T10:51:17.552Z,22.66
2023-05-09T10:53:49.876Z,22.55
2023-05-09T10:56:29.886Z,22.82
2023-05-09T10:58:57.492Z,22.61
2023-05-09T11:01:37.580Z,22.75
2023-05-09T11:04:23.937Z,23.25
2023-05-09T11:06:54.006Z,23.14
2023-05-09T11:09:34.654Z,21.84
2023-05-09T11:12:02.366Z,22.33
2023-05-09T11:14:49.564Z,21.50
2023-05-09T11:17:22.947Z,22.38
2023-05-09T11:19:50.469Z,22.11
2023-05-09T11:22:32.828Z,20.58
2023-05-09T11:25:08.144Z,21.57
2023-05-09T11:27:49.976Z,22.58
2023-05-09T11:30:19.843Z,22.10
2023-05-09T11:32:52.473Z,22.25
2023-05-09T11:35:21.603Z,22.32
2023-05-09T11:37:54.804Z,22.60
2023-05-09T11:40:24.211Z,22.76
2023-05-09T11:42:58.362Z,22.42
2023-05-09T11:45:28.775Z,21.79
2023-05-09T11:48:01.223Z,21.99
2023-05-09T11:50:28.771Z,22.10
2023-05-09T11:52:56.511Z,21.38
2023-05-09T11:55:25.666Z,20.85
2023-05-09T11:57:54.491Z,21.02
2023-05-09T12:00:23.813Z,21.38
2023-05-09T12:02:51.823Z,21.19
2023-05-09T12:05:21.354Z,20.78
2023-05-09T12:07:48.991Z,20.40
2023-05-09T12:10:23.364Z,20.58
2023-05-09T12:12:53.019Z,21.09
2023-05-09T12:15:21.791Z,21.19
2023-05-09T12:18:03.213Z,20.66
2023-05-09T12:20:48.148Z,20.16
2023-05-09T12:23:15.449Z,20.71
2023-05-09T12:25:56.905Z,21.20
2023-05-09T12:28:25.545Z,20.86
2023-05-09T12:30:54.033Z,20.77
2023-05-09T12:33:21.447Z,20.73
2023-05-09T12:36:00.856Z,20.65
2023-05-09T12:38:28.150Z,20.46
2023-05-09T12:41:03.967Z,19.91
2023-05-09T12:43:36.556Z,20.08
2023-05-09T12:46:04.600Z,20.59
2023-05-09T12:48:38.431Z,21.24
2023-05-09T12:51:08.359Z,21.40
2023-05-09T12:53:42.375Z,20.49
2023-05-09T12:56:17.331Z,21.00
2023-05-09T12:58:54.212Z,20.79
2023-05-09T13:01:27.917Z,21.25
2023-05-09T13:04:06.135Z,21.25
2023-05-09T13:06:34.911Z,21.46
2023-05-09T13:09:05.847Z,21.60
2023-05-09T13:11:33.370Z,21.75
2023-05-09T13:14:00.565Z,21.83
2023-05-09T13:16:28.198Z,22.11
2023-05-09T13:18:55.499Z,22.32
2023-05-09T13:21:22.631Z,22.23
2023-05-09T13:23:51.296Z,22.43
2023-05-09T13:26:18.600Z,22.61
2023-05-09T13:28:45.826Z,23.16
2023-05-09T13:31:12.862Z,23.06
2023-05-09T13:33:40.209Z,22.48
2023-05-09T13:36:07.562Z,23.00
2023-05-09T13:38:38.865Z,23.16
2023-05-09T13:41:10.070Z,22.54
2023-05-09T13:43:39.228Z,22.97
2023-05-09T13:46:06.587Z,22.80
2023-05-09T13:48:33.709Z,22.92
2023-05-09T13:51:01.529Z,23.20
2023-05-09T13:53:28.781Z,23.13
2023-05-09T13:55:55.819Z,23.37
2023-05-09T13:58:23.032Z,23.75
2023-05-09T14:00:50.422Z,23.62
2023-05-09T14:03:17.718Z,23.90
2023-05-09T14:05:45.042Z,24.08
2023-05-09T14:08:12.369Z,24.04
2023-05-09T14:10:39.432Z,24.62
2023-05-09T14:13:08.532Z,24.23
2023-05-09T14:15:35.999Z,23.97
2023-05-09T14:18:03.356Z,24.72
2023-05-09T14:20:30.431Z,24.56
2023-05-09T14:23:00.721Z,24.75
2023-05-09T14:25:28.024Z,25.19
2023-05-09T14:27:55.159Z,25.90
2023-05-09T14:30:22.263Z,25.49
2023-05-09T14:32:49.341Z,25.49
2023-05-09T14:35:16.519Z,25.58
2023-05-09T14:37:43.766Z,25.62
2023-05-09T14:40:11.001Z,26.87
2023-05-09T14:42:38.165Z,26.12
2023-05-09T14:45:07.316Z,25.50
2023-05-09T14:47:34.476Z,25.51
2023-05-09T14:50:01.527Z,25.48
2023-05-09T14:52:31.416Z,25.68
2023-05-09T14:54:59.895Z,25.83
2023-05-09T14:57:27.018Z,25.61
2023-05-09T14:59:54.046Z,25.03
2023-05-09T15:02:21.098Z,25.09
2023-05-09T15:04:48.131Z,25.03
2023-05-09T15:07:15.243Z,25.29
2023-05-09T15:09:42.334Z,25.42
2023-05-09T15:12:09.515Z,25.50
2023-05-09T15:14:36.871Z,25.12
2023-05-09T15:17:04.458Z,24.87
2023-05-09T15:19:32.612Z,24.68
2023-05-09T15:22:00.651Z,24.43
2023-05-09T15:24:27.851Z,24.35
2023-05-09T15:26:54.892Z,24.47
2023-05-09T15:29:22.050Z,24.46
2023-05-09T15:31:49.219Z,24.44
2023-05-09T15:34:17.138Z,24.82
2023-05-09T15:36:44.336Z,24.64
2023-05-09T15:39:11.527Z,24.67
2023-05-09T15:41:38.580Z,24.48
2023-05-09T15:44:05.568Z,24.38
2023-05-09T15:46:33.265Z,24.43
2023-05-09T15:49:00.694Z,24.51
2023-05-09T15:51:30.208Z,24.55
2023-05-09T15:53:57.281Z,24.44
2023-05-09T15:56:24.406Z,24.45
2023-05-09T15:58:51.463Z,24.75
2023-05-09T16:01:18.749Z,24.92
2023-05-09T16:03:46.117Z,24.85
2023-05-09T16:06:13.563Z,24.73
2023-05-09T16:08:40.764Z,25.75
2023-05-09T16:11:08.093Z,25.90
2023-05-09T16:13:36.049Z,25.28
2023-05-09T16:16:03.724Z,25.05
2023-05-09T16:18:30.911Z,25.65
2023-05-09T16:20:57.992Z,26.06
2023-05-09T16:23:26.078Z,26.23
2023-05-09T16:25:54.117Z,26.25
2023-05-09T16:28:23.649Z,26.81
2023-05-09T16:30:51.726Z,26.50
2023-05-09T16:33:18.812Z,26.61
2023-05-09T16:35:46.668Z,27.17
2023-05-09T16:38:13.861Z,27.38
2023-05-09T16:40:40.903Z,27.58
2023-05-09T16:43:07.958Z,27.52
2023-05-09T16:45:35.186Z,27.23
2023-05-09T16:48:02.605Z,27.40
2023-05-09T16:50:30.023Z,27.48
2023-05-09T16:52:57.126Z,27.71
2023-05-09T16:55:24.260Z,27.62
2023-05-09T16:57:51.306Z,27.90
2023-05-09T17:00:18.891Z,28.06
2023-05-09T17:02:46.010Z,28.11
2023-05-09T17:05:13.137Z,29.37
2023-05-09T17:07:40.155Z,30.46
2023-05-09T17:10:07.670Z,30.47
2023-05-09T17:12:35.310Z,30.07
2023-05-09T17:15:02.446Z,29.87
2023-05-09T17:17:32.130Z,29.92
2023-05-09T17:20:01.073Z,30.30
2023-05-09T17:22:30.982Z,30.59
2023-05-09T17:24:58.059Z,30.92
2023-05-09T17:27:25.844Z,31.12
2023-05-09T17:29:52.869Z,31.01
2023-05-09T17:32:19.923Z,31.34
2023-05-09T17:34:47.073Z,31.51
2023-05-09T17:37:14.214Z,31.63
2023-05-09T17:39:42.436Z,31.92
2023-05-09T17:42:10.335Z,31.67
2023-05-09T17:44:39.458Z,31.86
2023-05-09T17:47:06.685Z,32.64
2023-05-09T17:49:33.706Z,33.29
2023-05-09T17:52:01.478Z,33.89
2023-05-09T17:54:29.343Z,34.05
2023-05-09T17:56:59.305Z,34.40
2023-05-09T17:59:26.338Z,34.21
2023-05-09T18:01:54.423Z,34.32
2023-05-09T18:04:22.029Z,34.45
2023-05-09T18:06:50.009Z,34.47
2023-05-09T18:09:17.496Z,34.80
2023-05-09T18:11:44.721Z,34.87
2023-05-09T18:14:13.113Z,35.03
2023-05-09T18:16:40.247Z,36.04
2023-05-09T18:19:07.421Z,36.16
2023-05-09T18:21:34.546Z,35.85
2023-05-09T18:24:01.622Z,35.93
2023-05-09T18:26:28.859Z,36.36
2023-05-09T18:28:55.903Z,36.49
2023-05-09T18:31:22.891Z,36.57
2023-05-09T18:33:50.293Z,36.71
2023-05-09T18:36:17.305Z,36.68
2023-05-09T18:38:44.656Z,36.66
2023-05-09T18:41:12.858Z,37.07
2023-05-09T18:43:45.947Z,36.86
2023-05-09T18:46:18.104Z,37.30
2023-05-09T18:48:46.042Z,37.44
2023-05-09T18:51:13.273Z,37.27
2023-05-09T18:53:40.599Z,37.66
2023-05-09T18:56:08.978Z,37.19
2023-05-09T18:58:36.962Z,37.62
2023-05-09T19:01:04.691Z,37.33
2023-05-09T19:03:32.180Z,37.40
2023-05-09T19:06:00.075Z,37.57
2023-05-09T19:08:27.449Z,38.02
2023-05-09T19:10:54.718Z,38.01
2023-05-09T19:13:21.947Z,38.41
2023-05-09T19:15:49.201Z,38.04
2023-05-09T19:18:16.622Z,38.56
2023-05-09T19:20:43.821Z,38.84
2023-05-09T19:23:12.221Z,39.27
2023-05-09T19:25:39.357Z,39.20
2023-05-09T19:28:06.687Z,39.29
2023-05-09T19:30:34.250Z,39.53
2023-05-09T19:33:01.439Z,39.42
2023-05-09T19:35:28.417Z,39.55
2023-05-09T19:37:55.436Z,39.24
2023-05-09T19:40:22.543Z,39.57
2023-05-09T19:42:49.565Z,39.23
2023-05-09T19:45:16.724Z,39.95
2023-05-09T19:47:43.853Z,40.25
2023-05-09T19:50:11.174Z,40.14
2023-05-09T19:52:38.300Z,40.24
2023-05-09T19:55:06.147Z,40.41
2023-05-09T19:57:33.502Z,40.29
2023-05-09T20:00:00.572Z,40.71
2023-05-09T20:02:27.743Z,40.63
2023-05-09T20:04:54.827Z,41.13
2023-05-09T20:07:21.812Z,40.69
2023-05-09T20:09:48.921Z,41.05
2023-05-09T20:12:16.015Z,41.20
2023-05-09T20:14:44.375Z,41.40
2023-05-09T20:17:11.506Z,40.94
2023-05-09T20:19:38.768Z,40.82
2023-05-09T20:22:06.699Z,40.96
2023-05-09T20:24:33.796Z,41.48
2023-05-09T20:27:02.595Z,41.29
2023-05-09T20:29:29.640Z,41.54
2023-05-09T20:31:57.122Z,42.07
2023-05-09T20:34:24.859Z,41.73
2023-05-09T20:36:55.199Z,41.79
2023-05-09T20:39:23.286Z,41.89
2023-05-09T20:41:51.586Z,42.51
2023-05-09T20:44:19.309Z,42.74
2023-05-09T20:46:46.453Z,42.50
2023-05-09T20:49:13.994Z,42.48
2023-05-09T20:51:41.326Z,43.02
2023-05-09T20:54:08.555Z,42.77
2023-05-09T20:56:35.870Z,43.03
2023-05-09T20:59:04.457Z,42.44
2023-05-09T21:01:35.542Z,42.91
2023-05-09T21:04:05.898Z,42.99
2023-05-09T21:06:33.364Z,42.17
2023-05-09T21:09:00.606Z,42.47
2023-05-09T21:11:27.787Z,42.28
2023-05-09T21:13:54.800Z,41.98
2023-05-09T21:16:22.215Z,42.81
2023-05-09T21:18:49.270Z,42.68
2023-05-09T21:21:16.386Z,42.64
2023-05-09T21:23:43.521Z,42.67
2023-05-09T21:26:10.511Z,42.76
2023-05-09T21:28:37.560Z,43.16
2023-05-09T21:31:04.839Z,42.88
2023-05-09T21:33:31.936Z,43.08
2023-05-09T21:35:59.487Z,43.46
2023-05-09T21:38:26.543Z,43.51
2023-05-09T21:40:53.650Z,43.99
2023-05-09T21:43:20.667Z,43.94
2023-05-09T21:45:47.649Z,43.94
2023-05-09T21:48:14.740Z,44.27
2023-05-09T21:50:46.108Z,44.24
2023-05-09T21:53:14.387Z,44.06
2023-05-09T21:55:41.580Z,44.23
2023-05-09T21:58:08.672Z,44.12
2023-05-09T22:00:35.862Z,43.65
2023-05-09T22:03:03.196Z,43.58
2023-05-09T22:05:30.374Z,43.58
2023-05-09T22:07:57.377Z,43.72
2023-05-09T22:10:24.503Z,44.18
2023-05-09T22:12:51.648Z,44.77
2023-05-09T22:15:18.681Z,44.39
2023-05-09T22:17:45.968Z,44.78
2023-05-09T22:20:13.069Z,44.43
2023-05-09T22:22:40.341Z,44.43
2023-05-09T22:25:07.526Z,44.95
2023-05-09T22:27:34.661Z,44.84
2023-05-09T22:30:02.914Z,45.48
2023-05-09T22:32:32.794Z,45.69
2023-05-09T22:34:59.905Z,46.05
2023-05-09T22:37:26.998Z,46.19
2023-05-09T22:39:54.085Z,45.71
2023-05-09T22:42:21.117Z,45.69
2023-05-09T22:44:49.900Z,46.00
2023-05-09T22:47:17.034Z,46.16
2023-05-09T22:49:45.729Z,46.37
2023-05-09T22:52:13.101Z,46.09
2023-05-09T22:54:40.667Z,46.31
2023-05-09T22:57:07.730Z,46.05
2023-05-09T22:59:34.881Z,46.35
2023-05-09T23:02:01.913Z,46.46
2023-05-09T23:04:28.996Z,46.33
2023-05-09T23:06:56.270Z,46.73
2023-05-09T23:09:23.475Z,46.72
2023-05-09T23:11:50.497Z,46.34
2023-05-09T23:14:17.697Z,46.45
2023-05-09T23:16:44.788Z,46.33
2023-05-09T23:19:11.819Z,46.26
2023-05-09T23:21:38.900Z,46.65
2023-05-09T23:24:06.288Z,46.23
2023-05-09T23:26:33.538Z,46.71
2023-05-09T23:29:00.558Z,47.07
2023-05-09T23:31:27.614Z,46.89
2023-05-09T23:33:54.741Z,47.22
2023-05-09T23:36:21.882Z,47.33
2023-05-09T23:38:49.029Z,47.45
2023-05-09T23:41:16.129Z,47.12
2023-05-09T23:43:43.276Z,47.40
2023-05-09T23:46:10.288Z,47.48
2023-05-09T23:48:37.489Z,47.17
2023-05-09T23:51:04.721Z,47.39
2023-05-09T23:53:35.149Z,47.64
2023-05-09T23:56:03.004Z,47.36
2023-05-09T23:58:30.324Z,47.47
